Terminal Aerodrome Forecast
Issued by NWS

Home | Current Version | Previous Version | Text Only | Print | Product List | Glossary On
Versions: 1 2 3 4 5 6 7 8 9 10 11 12 13 14 15 16 17
000
FTPQ31 PGUM 240310 AAF
TAFGUM
TAF AMD

TAF AMD
PGRO 240310Z 2403/2424 09014KT P6SM VCSH SCT013 SCT035
     FM241200 08011KT P6SM SHRA SCT015 BKN030=

USA.gov is the U.S. government's official web portal to all federal, state and local government web resources and services.